Time;durP1;ratioP1;P1;durP2;ratioP2;P2;SDS_P1;SDS_P2;PMS_P1;PMS_P2;Temp;Humidity;BMP_temperature;BMP_pressure;BME280_temperature;BME280_humidity;BME280_pressure;Samples;Min_cycle;Max_cycle;Signal;HPM_P1;HPM_P2
2021/04/17 00:02:05;;;;;;;9.20;6.53;;;7.30;90.20;;;;;;5073839;28;20524;-80
2021/04/17 00:04:31;;;;;;;8.90;6.53;;;7.30;90.30;;;;;;5073467;28;20425;-81
2021/04/17 00:06:56;;;;;;;7.38;5.75;;;7.30;90.40;;;;;;5073940;28;20093;-81
2021/04/17 00:09:24;;;;;;;7.38;5.82;;;7.40;90.30;;;;;;5075017;28;20489;-81
2021/04/17 00:11:52;;;;;;;7.50;5.90;;;7.40;90.50;;;;;;5075468;28;20032;-80
2021/04/17 00:14:22;;;;;;;8.43;5.82;;;7.40;90.30;;;;;;5076846;28;20028;-80
2021/04/17 00:16:48;;;;;;;8.02;6.20;;;7.40;90.00;;;;;;5076885;28;20033;-80
2021/04/17 00:19:14;;;;;;;7.80;5.57;;;7.40;90.00;;;;;;5077245;28;20076;-80
2021/04/17 00:21:40;;;;;;;8.05;5.90;;;7.40;90.10;;;;;;5077479;28;20086;-81
2021/04/17 00:24:06;;;;;;;11.05;6.97;;;7.40;90.10;;;;;;5076892;28;20036;-81
2021/04/17 00:26:34;;;;;;;9.43;6.65;;;7.40;90.00;;;;;;5077354;28;20033;-81
2021/04/17 00:29:01;;;;;;;10.68;6.82;;;7.40;90.00;;;;;;5077364;28;20039;-81
2021/04/17 00:31:27;;;;;;;11.13;7.13;;;7.40;90.10;;;;;;5076773;28;20056;-81
2021/04/17 00:33:53;;;;;;;13.68;9.45;;;7.40;90.30;;;;;;5077156;28;20508;-81
2021/04/17 00:36:18;;;;;;;19.95;12.35;;;7.40;90.30;;;;;;5077292;28;20062;-81
2021/04/17 00:38:44;;;;;;;18.83;12.55;;;7.40;90.20;;;;;;5075762;28;20056;-81
2021/04/17 00:41:10;;;;;;;19.30;13.40;;;7.40;90.10;;;;;;5076865;28;20028;-81
2021/04/17 00:43:35;;;;;;;25.48;15.60;;;7.50;90.20;;;;;;5076851;28;20037;-81
2021/04/17 00:46:01;;;;;;;26.27;17.65;;;7.50;90.30;;;;;;5076470;28;20024;-80
2021/04/17 00:48:27;;;;;;;31.75;18.40;;;7.50;90.20;;;;;;5077016;28;20032;-80
2021/04/17 00:50:55;;;;;;;28.23;17.48;;;7.50;90.20;;;;;;5076569;28;20382;-80
2021/04/17 00:53:21;;;;;;;26.92;17.98;;;7.60;90.20;;;;;;5076717;28;20367;-80
2021/04/17 00:55:46;;;;;;;31.70;18.83;;;7.60;90.20;;;;;;5076920;28;20108;-81
2021/04/17 00:58:12;;;;;;;28.13;15.48;;;7.60;90.20;;;;;;5077161;28;20028;-81
2021/04/17 01:00:38;;;;;;;26.42;16.10;;;7.60;90.20;;;;;;5076701;28;20054;-80
2021/04/17 01:03:07;;;;;;;23.33;14.27;;;7.60;90.10;;;;;;5076285;28;20074;-80
2021/04/17 01:05:33;;;;;;;21.83;15.05;;;7.60;90.00;;;;;;5076309;28;20028;-81
2021/04/17 01:08:03;;;;;;;18.30;11.10;;;7.60;90.10;;;;;;5076914;28;20116;-80
2021/04/17 01:10:40;;;;;;;20.05;12.20;;;7.70;90.20;;;;;;5078886;28;20547;-80
2021/04/17 01:13:09;;;;;;;22.33;12.82;;;7.70;90.10;;;;;;5079455;28;20040;-81
2021/04/17 01:15:35;;;;;;;19.25;11.20;;;7.70;90.20;;;;;;5077082;28;20028;-81
2021/04/17 01:18:01;;;;;;;17.92;10.63;;;7.80;90.50;;;;;;5074175;28;20462;-80
2021/04/17 01:20:43;;;;;;;19.55;10.68;;;7.80;90.10;;;;;;5076746;28;20049;-80
2021/04/17 01:23:17;;;;;;;20.50;10.52;;;7.80;90.20;;;;;;5076127;28;20035;-80
2021/04/17 01:25:49;;;;;;;19.80;9.70;;;7.90;90.20;;;;;;5076744;28;20557;-80
2021/04/17 01:28:17;;;;;;;20.55;10.10;;;7.90;89.90;;;;;;5075992;28;20444;-80
2021/04/17 01:30:49;;;;;;;20.00;9.57;;;7.90;90.00;;;;;;5076130;28;20362;-80
2021/04/17 01:33:17;;;;;;;17.80;9.65;;;7.90;90.00;;;;;;5074586;28;20390;-81
2021/04/17 01:35:44;;;;;;;17.13;8.52;;;7.90;89.90;;;;;;5076102;28;20024;-81
2021/04/17 01:38:15;;;;;;;13.13;7.80;;;7.90;90.00;;;;;;5076157;28;20478;-81
2021/04/17 01:40:44;;;;;;;18.60;8.70;;;7.90;89.50;;;;;;5075548;28;20363;-81
2021/04/17 01:43:10;;;;;;;12.70;7.50;;;7.90;89.50;;;;;;5075947;28;20029;-81
2021/04/17 01:45:36;;;;;;;12.52;7.93;;;7.90;89.80;;;;;;5075698;28;20029;-80
2021/04/17 01:48:04;;;;;;;16.48;8.35;;;7.90;90.00;;;;;;5075701;28;20078;-80
2021/04/17 01:50:31;;;;;;;13.02;7.57;;;7.90;90.10;;;;;;5075592;28;20439;-80
2021/04/17 01:53:00;;;;;;;15.80;8.40;;;8.00;90.10;;;;;;5075841;28;20027;-80
2021/04/17 01:55:29;;;;;;;11.20;7.75;;;8.00;90.10;;;;;;5076107;28;20032;-80
2021/04/17 01:57:57;;;;;;;14.52;8.10;;;8.00;89.60;;;;;;5075953;28;20052;-80
2021/04/17 02:00:24;;;;;;;17.73;8.25;;;8.00;90.00;;;;;;5075847;28;20073;-80
2021/04/17 02:02:51;;;;;;;13.48;8.35;;;8.00;90.00;;;;;;5075084;28;20032;-80
2021/04/17 02:05:17;;;;;;;15.57;8.23;;;8.10;90.10;;;;;;5075089;28;20052;-80
2021/04/17 02:07:42;;;;;;;12.68;8.77;;;8.10;89.90;;;;;;5075164;28;20033;-81
2021/04/17 02:10:09;;;;;;;19.00;8.80;;;8.10;90.00;;;;;;5075277;28;20480;-79
2021/04/17 02:12:35;;;;;;;20.02;8.68;;;8.20;90.00;;;;;;5074743;28;20048;-79
2021/04/17 02:15:02;;;;;;;20.98;10.00;;;8.20;89.70;;;;;;5075013;28;20028;-79
2021/04/17 02:17:51;;;;;;;29.02;10.48;;;8.20;89.70;;;;;;5073730;28;20044;-80
2021/04/17 02:20:24;;;;;;;17.95;9.35;;;8.20;89.60;;;;;;5073499;28;20040;-79
2021/04/17 02:22:51;;;;;;;20.98;10.18;;;8.30;89.70;;;;;;5073577;28;20023;-79
2021/04/17 02:25:17;;;;;;;31.98;13.02;;;8.30;89.60;;;;;;5073856;28;20052;-81
2021/04/17 02:27:43;;;;;;;24.50;12.48;;;8.30;89.60;;;;;;5072991;28;20042;-80
2021/04/17 02:30:09;;;;;;;29.83;11.80;;;8.30;89.50;;;;;;5074020;28;20082;-80
2021/04/17 02:32:35;;;;;;;28.15;12.63;;;8.30;89.50;;;;;;5072900;28;20035;-80
2021/04/17 02:35:01;;;;;;;29.35;13.13;;;8.40;89.50;;;;;;5072036;28;20024;-80
2021/04/17 02:37:27;;;;;;;39.05;15.30;;;8.30;89.50;;;;;;5072439;28;20395;-82
2021/04/17 02:39:53;;;;;;;38.03;15.73;;;8.40;89.30;;;;;;5072496;28;20458;-81
2021/04/17 02:42:19;;;;;;;36.10;15.75;;;8.40;89.00;;;;;;5072711;28;20024;-80
2021/04/17 02:44:44;;;;;;;36.88;16.70;;;8.40;88.70;;;;;;5073086;28;20567;-80
2021/04/17 02:47:11;;;;;;;37.47;16.33;;;8.40;88.90;;;;;;5073192;28;20021;-80
2021/04/17 02:49:36;;;;;;;34.08;15.32;;;8.40;89.00;;;;;;5073251;28;20382;-80
2021/04/17 02:52:02;;;;;;;29.90;14.65;;;8.40;89.20;;;;;;5073277;28;20025;-81
2021/04/17 02:54:28;;;;;;;33.95;15.13;;;8.40;89.40;;;;;;5073173;28;20155;-80
2021/04/17 02:56:54;;;;;;;34.63;17.00;;;8.40;89.10;;;;;;5073560;28;20021;-80
2021/04/17 02:59:20;;;;;;;32.85;15.23;;;8.50;89.10;;;;;;5073166;28;20047;-80
2021/04/17 03:01:46;;;;;;;34.33;16.52;;;8.50;89.30;;;;;;5073610;28;20035;-80
2021/04/17 03:04:12;;;;;;;34.85;15.70;;;8.50;89.30;;;;;;5072764;28;20525;-80
2021/04/17 03:06:37;;;;;;;34.55;17.30;;;8.50;89.30;;;;;;5073469;28;20035;-81
2021/04/17 03:09:04;;;;;;;34.58;18.10;;;8.50;89.30;;;;;;5073294;28;20024;-80
2021/04/17 03:11:29;;;;;;;35.30;17.88;;;8.60;89.30;;;;;;5072925;28;20047;-81
2021/04/17 03:13:55;;;;;;;33.95;18.50;;;8.60;89.30;;;;;;5073259;28;20424;-80
2021/04/17 03:16:21;;;;;;;40.00;20.60;;;8.60;89.20;;;;;;5072753;28;20046;-81
2021/04/17 03:18:46;;;;;;;37.42;17.90;;;8.60;88.80;;;;;;5073042;28;20043;-81
2021/04/17 03:21:12;;;;;;;32.30;16.27;;;8.50;88.60;;;;;;5073120;28;20032;-81
2021/04/17 03:23:38;;;;;;;32.38;15.80;;;8.50;88.50;;;;;;5072832;28;20031;-80
2021/04/17 03:26:04;;;;;;;30.40;16.40;;;8.50;88.80;;;;;;5072658;28;20494;-80
2021/04/17 03:28:30;;;;;;;30.80;15.93;;;8.40;89.00;;;;;;5073117;28;20477;-80
2021/04/17 03:30:56;;;;;;;29.92;14.55;;;8.50;89.40;;;;;;5072903;28;20027;-80
2021/04/17 03:33:21;;;;;;;26.55;14.68;;;8.50;89.80;;;;;;5072907;28;20115;-80
2021/04/17 03:35:47;;;;;;;28.33;14.20;;;8.50;89.80;;;;;;5072842;28;20020;-81
2021/04/17 03:38:13;;;;;;;29.98;15.13;;;8.50;89.90;;;;;;5073069;28;20033;-81
2021/04/17 03:40:39;;;;;;;22.85;13.57;;;8.60;90.00;;;;;;5073157;28;20356;-80
2021/04/17 03:43:04;;;;;;;27.55;14.45;;;8.70;90.00;;;;;;5073461;28;20369;-80
2021/04/17 03:45:31;;;;;;;26.42;14.25;;;8.70;90.00;;;;;;5078849;28;20074;-81
2021/04/17 03:47:57;;;;;;;24.60;13.30;;;8.80;90.10;;;;;;5077154;28;20016;-80
2021/04/17 03:50:23;;;;;;;22.73;13.80;;;8.80;90.40;;;;;;5076479;28;20025;-81
2021/04/17 03:52:49;;;;;;;27.50;13.98;;;8.90;90.10;;;;;;5076483;28;20021;-81
2021/04/17 03:55:16;;;;;;;23.67;13.75;;;9.00;90.00;;;;;;5076831;28;20020;-80
2021/04/17 03:57:43;;;;;;;24.33;12.52;;;9.00;90.00;;;;;;5073968;28;20862;-81
2021/04/17 04:00:13;;;;;;;21.60;12.48;;;9.10;90.10;;;;;;5077010;28;20028;-80
2021/04/17 04:02:38;;;;;;;18.70;12.55;;;9.10;89.90;;;;;;5075638;28;20024;-81
2021/04/17 04:05:06;;;;;;;24.55;13.40;;;9.10;89.80;;;;;;5076109;28;20034;-80
2021/04/17 04:07:31;;;;;;;18.42;11.40;;;9.20;89.70;;;;;;5076973;28;20024;-80
2021/04/17 04:09:57;;;;;;;20.65;12.25;;;9.20;89.50;;;;;;5076170;28;20019;-80
2021/04/17 04:12:23;;;;;;;21.50;12.15;;;9.20;89.30;;;;;;5075708;28;20104;-80
2021/04/17 04:14:48;;;;;;;24.25;12.63;;;9.30;89.20;;;;;;5076521;28;20070;-80
2021/04/17 04:17:14;;;;;;;26.38;13.25;;;9.30;88.90;;;;;;5075472;28;20095;-80
2021/04/17 04:19:40;;;;;;;18.77;11.30;;;9.30;88.70;;;;;;5076118;28;20055;-81
2021/04/17 04:22:06;;;;;;;20.77;11.55;;;9.30;88.50;;;;;;5075649;28;20032;-80
2021/04/17 04:24:31;;;;;;;18.70;12.02;;;9.30;88.50;;;;;;5075684;28;20039;-80
2021/04/17 04:26:57;;;;;;;24.25;12.68;;;9.30;88.30;;;;;;5075152;28;20032;-80
2021/04/17 04:29:23;;;;;;;19.17;11.80;;;9.30;88.10;;;;;;5075654;28;20028;-81
2021/04/17 04:31:48;;;;;;;23.52;13.10;;;9.20;88.10;;;;;;5075791;28;20031;-81
2021/04/17 04:34:14;;;;;;;19.48;11.63;;;9.20;88.30;;;;;;5074449;28;20029;-81
2021/04/17 04:36:40;;;;;;;21.52;12.32;;;9.20;88.10;;;;;;5074145;28;20032;-80
2021/04/17 04:39:06;;;;;;;21.20;12.65;;;9.20;88.00;;;;;;5079961;28;20078;-81
2021/04/17 04:41:32;;;;;;;17.00;11.85;;;9.20;88.10;;;;;;5075563;28;20016;-81
2021/04/17 04:44:22;;;;;;;17.05;11.00;;;9.20;88.10;;;;;;5075947;28;20024;-80
2021/04/17 04:46:48;;;;;;;19.88;11.43;;;9.20;88.10;;;;;;5076938;28;20063;-80
2021/04/17 04:49:14;;;;;;;22.55;13.48;;;9.10;87.90;;;;;;5076594;28;20028;-81
2021/04/17 04:51:40;;;;;;;24.30;14.73;;;9.10;88.00;;;;;;5076034;28;20021;-80
2021/04/17 04:54:06;;;;;;;26.42;15.45;;;9.10;88.20;;;;;;5076656;28;20036;-80
2021/04/17 04:56:31;;;;;;;34.45;17.52;;;9.10;88.20;;;;;;5076314;28;20025;-81
2021/04/17 04:58:57;;;;;;;35.92;19.05;;;9.10;88.10;;;;;;5076895;28;20024;-82
2021/04/17 05:01:23;;;;;;;30.30;16.90;;;9.00;88.00;;;;;;5076540;28;20359;-82
2021/04/17 05:03:50;;;;;;;27.08;15.60;;;9.00;88.20;;;;;;5075668;28;20166;-82
2021/04/17 05:06:16;;;;;;;28.27;16.38;;;9.00;88.30;;;;;;5075580;28;20039;-80
2021/04/17 05:08:42;;;;;;;31.52;15.77;;;8.90;87.90;;;;;;5075865;28;20025;-82
2021/04/17 05:11:08;;;;;;;23.23;13.50;;;9.00;88.20;;;;;;5075542;28;20036;-81
2021/04/17 05:13:33;;;;;;;22.27;13.10;;;8.90;88.40;;;;;;5074214;28;20477;-81
2021/04/17 05:15:59;;;;;;;26.27;15.75;;;8.90;88.50;;;;;;5075498;28;20082;-81
2021/04/17 05:18:25;;;;;;;27.70;15.45;;;9.00;88.80;;;;;;5075251;28;20062;-82
2021/04/17 05:20:51;;;;;;;24.65;15.00;;;9.00;88.60;;;;;;5075682;28;20068;-81
2021/04/17 05:23:16;;;;;;;29.05;14.60;;;9.00;89.40;;;;;;5075502;28;20075;-81
2021/04/17 05:25:42;;;;;;;25.58;14.48;;;9.00;89.00;;;;;;5075331;28;20056;-81
2021/04/17 05:28:10;;;;;;;22.38;13.27;;;8.90;88.80;;;;;;5075104;28;20528;-80
2021/04/17 05:30:36;;;;;;;27.17;15.30;;;9.00;88.50;;;;;;5075139;28;20492;-80
2021/04/17 05:33:02;;;;;;;27.45;14.50;;;9.00;88.70;;;;;;5075234;28;20025;-81
2021/04/17 05:35:27;;;;;;;23.60;14.52;;;9.00;89.00;;;;;;5074901;28;20156;-80
2021/04/17 05:37:53;;;;;;;23.13;14.45;;;9.00;88.70;;;;;;5074927;28;20025;-80
2021/04/17 05:40:19;;;;;;;21.23;13.77;;;9.00;88.90;;;;;;5074933;28;20020;-81
2021/04/17 05:42:44;;;;;;;22.13;14.20;;;9.00;89.00;;;;;;5074318;28;20032;-80
2021/04/17 05:45:11;;;;;;;27.48;15.50;;;9.00;89.70;;;;;;5074242;28;20056;-83
2021/04/17 05:47:37;;;;;;;22.45;14.32;;;9.10;89.40;;;;;;5075206;28;20025;-83
2021/04/17 05:50:03;;;;;;;19.88;13.57;;;9.10;89.70;;;;;;5074554;28;20111;-83
2021/04/17 05:52:29;;;;;;;24.98;14.65;;;9.20;89.60;;;;;;5075481;28;20024;-82
2021/04/17 05:54:55;;;;;;;20.90;13.93;;;9.30;89.40;;;;;;5076118;28;20047;-82
2021/04/17 05:57:20;;;;;;;20.67;13.40;;;9.30;89.50;;;;;;5073553;28;20024;-83
2021/04/17 05:59:46;;;;;;;20.95;13.80;;;9.40;89.50;;;;;;5074580;28;20024;-83
2021/04/17 06:02:58;;;;;;;18.70;12.57;;;9.60;89.60;;;;;;5068305;28;20022;-81
2021/04/17 06:05:24;;;;;;;16.08;10.80;;;9.70;89.40;;;;;;5066388;28;20105;-82
2021/04/17 06:07:50;;;;;;;15.25;11.30;;;9.80;89.30;;;;;;5073938;28;20137;-82
2021/04/17 06:10:15;;;;;;;15.82;11.15;;;9.90;89.00;;;;;;5074199;28;20581;-81
2021/04/17 06:12:41;;;;;;;16.60;10.63;;;10.00;89.20;;;;;;5074330;28;20073;-81
2021/04/17 06:15:08;;;;;;;11.68;8.95;;;10.20;89.20;;;;;;5072945;28;20467;-81
2021/04/17 06:17:34;;;;;;;11.70;9.18;;;10.40;89.00;;;;;;5076123;28;20036;-82
2021/04/17 06:20:00;;;;;;;16.00;10.02;;;10.50;88.90;;;;;;5075778;28;20055;-80
2021/04/17 06:22:26;;;;;;;11.75;8.82;;;10.70;88.80;;;;;;5074244;28;20055;-81
2021/04/17 06:24:51;;;;;;;10.30;7.95;;;10.90;88.40;;;;;;5075775;28;20024;-82
2021/04/17 06:27:17;;;;;;;10.75;8.88;;;11.10;87.90;;;;;;5073078;28;20028;-81
2021/04/17 06:29:43;;;;;;;10.20;8.13;;;11.30;87.10;;;;;;5074163;28;20021;-81
2021/04/17 06:32:09;;;;;;;11.52;8.98;;;11.40;85.90;;;;;;5073580;28;20359;-82
2021/04/17 06:34:35;;;;;;;9.10;7.60;;;11.50;84.60;;;;;;5073998;28;20025;-82
2021/04/17 06:37:00;;;;;;;10.77;8.50;;;11.40;84.10;;;;;;5073406;28;20485;-82
2021/04/17 06:39:26;;;;;;;11.75;8.80;;;11.40;83.80;;;;;;5073589;28;20527;-82
2021/04/17 06:41:58;;;;;;;11.13;8.27;;;11.40;83.90;;;;;;5074237;28;20025;-82
2021/04/17 06:44:23;;;;;;;10.35;8.02;;;11.40;83.10;;;;;;5073330;28;20036;-83
2021/04/17 06:46:50;;;;;;;10.60;8.07;;;11.40;82.70;;;;;;5073647;28;20044;-83
2021/04/17 06:49:16;;;;;;;10.57;8.90;;;11.30;81.70;;;;;;5071906;28;20036;-82
2021/04/17 06:51:46;;;;;;;10.77;9.45;;;11.20;81.10;;;;;;5073997;28;20020;-82
2021/04/17 06:54:16;;;;;;;11.82;10.10;;;11.00;81.40;;;;;;5073257;28;20021;-82
2021/04/17 06:56:42;;;;;;;12.15;9.75;;;10.90;81.90;;;;;;5072089;28;20021;-82
2021/04/17 06:59:10;;;;;;;13.02;10.13;;;10.90;81.80;;;;;;5073741;28;20029;-83
2021/04/17 07:01:39;;;;;;;12.88;10.45;;;10.90;82.00;;;;;;5073075;28;20040;-80
2021/04/17 07:04:05;;;;;;;13.48;10.65;;;10.80;81.60;;;;;;5073813;28;20720;-81
2021/04/17 07:06:31;;;;;;;13.15;10.93;;;10.80;81.80;;;;;;5072070;28;20074;-83
2021/04/17 07:08:57;;;;;;;13.60;10.70;;;10.80;82.20;;;;;;5073864;28;20052;-80
2021/04/17 07:11:23;;;;;;;12.32;9.15;;;10.80;82.00;;;;;;5073345;28;20063;-81
2021/04/17 07:14:08;;;;;;;13.85;10.68;;;10.80;81.50;;;;;;5073091;28;20424;-81
2021/04/17 07:16:57;;;;;;;15.32;11.95;;;10.70;81.10;;;;;;5072392;28;20074;-81
2021/04/17 07:19:23;;;;;;;18.25;12.35;;;10.60;81.10;;;;;;5073208;28;20548;-81
2021/04/17 07:21:51;;;;;;;13.73;11.65;;;10.60;82.30;;;;;;5077608;28;20021;-84
2021/04/17 07:24:25;;;;;;;12.50;9.93;;;10.60;82.00;;;;;;5075393;28;20024;-83
2021/04/17 07:26:51;;;;;;;12.85;10.18;;;10.60;81.90;;;;;;5076840;28;20502;-83
2021/04/17 07:29:16;;;;;;;17.58;13.05;;;10.60;82.00;;;;;;5077574;28;20398;-83
2021/04/17 07:31:54;;;;;;;14.23;11.95;;;10.60;81.70;;;;;;5077943;28;20020;-85
2021/04/17 07:34:26;;;;;;;23.98;14.90;;;10.50;81.30;;;;;;5071401;28;20036;-85
2021/04/17 07:36:55;;;;;;;15.75;11.48;;;10.50;81.30;;;;;;5077245;28;20017;-85
2021/04/17 07:39:29;;;;;;;15.23;12.60;;;10.50;81.00;;;;;;5074604;28;20096;-86
2021/04/17 07:42:00;;;;;;;15.70;12.13;;;10.40;80.70;;;;;;5064559;28;20028;-86
2021/04/17 07:44:34;;;;;;;18.88;13.15;;;10.20;81.10;;;;;;5061464;28;20094;-87
2021/04/17 07:47:01;;;;;;;14.98;11.48;;;10.20;80.80;;;;;;5060527;28;20021;-86
2021/04/17 07:49:26;;;;;;;15.73;12.48;;;10.00;80.90;;;;;;5076513;28;20020;-86
2021/04/17 07:52:10;;;;;;;18.42;13.15;;;10.00;81.30;;;;;;5066087;28;20111;-82
2021/04/17 07:54:59;;;;;;;18.15;13.93;;;9.90;81.60;;;;;;5077658;28;20033;-81
2021/04/17 07:57:39;;;;;;;16.65;12.32;;;9.90;81.90;;;;;;5077172;28;20070;-86
2021/04/17 08:00:10;;;;;;;16.77;11.77;;;9.90;81.90;;;;;;5077874;28;20024;-81
2021/04/17 08:02:37;;;;;;;17.00;13.18;;;9.80;82.00;;;;;;5076634;28;20397;-80
2021/04/17 08:05:04;;;;;;;19.25;13.10;;;9.80;81.90;;;;;;5076581;28;20058;-81
2021/04/17 08:07:33;;;;;;;21.05;14.63;;;9.80;82.00;;;;;;5076645;28;20103;-84
2021/04/17 08:09:59;;;;;;;19.42;13.57;;;9.80;82.40;;;;;;5075530;28;20032;-84
2021/04/17 08:12:26;;;;;;;18.20;13.35;;;9.80;82.70;;;;;;5075426;28;20024;-83
2021/04/17 08:14:53;;;;;;;19.17;12.73;;;9.90;82.80;;;;;;5075531;28;20032;-83
2021/04/17 08:17:20;;;;;;;18.50;13.55;;;9.90;82.20;;;;;;5075470;28;20025;-83
2021/04/17 08:19:46;;;;;;;16.77;12.93;;;9.90;81.90;;;;;;5075024;28;20125;-83
2021/04/17 08:22:14;;;;;;;18.38;13.57;;;9.90;81.70;;;;;;5075146;28;20021;-85
2021/04/17 08:24:40;;;;;;;19.08;13.60;;;9.80;81.60;;;;;;5075086;28;20028;-84
2021/04/17 08:27:06;;;;;;;19.67;13.23;;;9.80;81.60;;;;;;5073841;28;20024;-85
2021/04/17 08:29:53;;;;;;;21.23;15.27;;;9.80;81.70;;;;;;5070414;28;20020;-84
2021/04/17 08:32:31;;;;;;;21.52;14.75;;;9.80;81.40;;;;;;5072991;28;20033;-82
2021/04/17 08:35:11;;;;;;;20.27;13.52;;;9.80;81.60;;;;;;5072651;28;20489;-83
2021/04/17 08:37:55;;;;;;;20.55;14.15;;;9.80;81.50;;;;;;5072355;28;20082;-83
2021/04/17 08:40:35;;;;;;;22.77;13.20;;;9.90;81.40;;;;;;5073065;28;20066;-83
2021/04/17 08:43:05;;;;;;;21.20;14.25;;;9.90;81.20;;;;;;5075610;28;20032;-83
2021/04/17 08:45:32;;;;;;;19.80;13.93;;;9.90;81.20;;;;;;5077253;28;20524;-83
2021/04/17 08:48:00;;;;;;;18.52;13.30;;;10.00;81.30;;;;;;5076795;28;20222;-86
2021/04/17 08:50:33;;;;;;;19.35;14.50;;;10.00;81.50;;;;;;5076101;28;20028;-83
2021/04/17 08:53:22;;;;;;;19.70;13.70;;;10.10;81.50;;;;;;5076550;28;20496;-82
2021/04/17 08:55:49;;;;;;;17.52;13.15;;;10.20;81.40;;;;;;5075894;28;20351;-81
2021/04/17 08:58:18;;;;;;;18.05;14.45;;;10.30;81.20;;;;;;5075669;28;20029;-81
2021/04/17 09:01:05;;;;;;;18.85;13.38;;;10.30;80.60;;;;;;5075600;28;20028;-82
2021/04/17 09:03:43;;;;;;;16.70;13.02;;;10.40;80.10;;;;;;5074202;28;20064;-82
2021/04/17 09:09:32;;;;;;;17.80;13.35;;;10.40;79.60;;;;;;5075244;28;20386;-82
2021/04/17 09:12:10;;;;;;;18.60;13.73;;;10.40;79.80;;;;;;5077129;28;20024;-82
2021/04/17 09:14:36;;;;;;;28.45;16.30;;;10.30;79.50;;;;;;5075379;28;20454;-82
2021/04/17 09:17:06;;;;;;;21.38;14.98;;;10.40;79.90;;;;;;5075158;28;20033;-83
2021/04/17 09:19:45;;;;;;;20.13;14.20;;;10.40;80.30;;;;;;5074870;28;20127;-82
2021/04/17 09:25:05;;;;;;;20.08;13.75;;;10.60;79.50;;;;;;5071855;28;20429;-81
2021/04/17 09:27:33;;;;;;;19.77;13.50;;;10.60;79.20;;;;;;5074314;28;20036;-82
2021/04/17 09:30:13;;;;;;;19.23;13.60;;;10.60;79.20;;;;;;5074293;28;20024;-82
2021/04/17 09:32:47;;;;;;;20.00;13.73;;;10.60;78.90;;;;;;5074429;28;20029;-83
2021/04/17 09:35:23;;;;;;;17.63;13.15;;;10.70;79.10;;;;;;5074396;28;20474;-82
2021/04/17 09:38:03;;;;;;;21.98;14.60;;;10.70;78.80;;;;;;5074829;28;20028;-81
2021/04/17 09:40:35;;;;;;;19.77;13.85;;;10.70;78.20;;;;;;5074613;28;20024;-80
2021/04/17 09:43:02;;;;;;;18.40;13.65;;;10.70;78.20;;;;;;5073037;28;20036;-80
2021/04/17 09:45:39;;;;;;;25.75;16.77;;;10.70;78.00;;;;;;5074444;28;20065;-81
2021/04/17 09:48:07;;;;;;;20.92;14.60;;;10.60;77.80;;;;;;5072844;28;20021;-82
2021/04/17 09:50:35;;;;;;;18.75;13.48;;;10.60;78.20;;;;;;5074554;28;20459;-80
2021/04/17 09:53:16;;;;;;;16.67;12.73;;;10.60;78.30;;;;;;5074172;28;20130;-82
2021/04/17 09:55:50;;;;;;;18.38;12.65;;;10.60;77.80;;;;;;5074271;28;20096;-81
2021/04/17 09:58:32;;;;;;;17.40;13.33;;;10.60;77.60;;;;;;5074847;28;20037;-81
2021/04/17 10:01:25;;;;;;;18.65;12.77;;;10.60;77.90;;;;;;5074673;28;20482;-85
2021/04/17 10:03:53;;;;;;;17.23;13.07;;;10.70;78.40;;;;;;5074882;28;20120;-86
2021/04/17 10:10:27;;;;;;;19.33;13.15;;;11.00;78.70;;;;;;5074539;28;20035;-86
2021/04/17 10:12:54;;;;;;;20.63;12.45;;;11.10;77.40;;;;;;5074342;28;20032;-85
2021/04/17 10:15:25;;;;;;;19.20;12.48;;;11.20;77.50;;;;;;5074180;28;20098;-83
2021/04/17 10:17:53;;;;;;;20.85;14.93;;;11.20;76.80;;;;;;5074156;28;20029;-86
2021/04/17 10:20:20;;;;;;;20.52;13.50;;;11.20;76.40;;;;;;5074679;28;20051;-88
2021/04/17 10:23:04;;;;;;;19.85;13.20;;;11.20;76.30;;;;;;5073662;28;20083;-85
2021/04/17 10:25:36;;;;;;;19.42;13.15;;;11.20;76.10;;;;;;5073680;28;20036;-86
2021/04/17 10:28:24;;;;;;;18.08;12.90;;;11.20;76.10;;;;;;5075271;28;20029;-86
2021/04/17 10:30:54;;;;;;;19.70;13.57;;;11.20;75.80;;;;;;5074017;28;20475;-85
2021/04/17 10:33:30;;;;;;;18.10;13.05;;;11.20;75.70;;;;;;5074265;28;20025;-86
2021/04/17 10:35:59;;;;;;;16.20;12.57;;;11.10;75.20;;;;;;5073005;28;20062;-86
2021/04/17 10:38:26;;;;;;;21.40;14.30;;;11.10;75.20;;;;;;5073480;28;20188;-85
2021/04/17 10:40:53;;;;;;;19.02;13.43;;;11.00;75.20;;;;;;5073993;28;20356;-85
2021/04/17 10:43:20;;;;;;;17.23;11.77;;;10.90;76.10;;;;;;5077039;28;20084;-86
2021/04/17 10:45:47;;;;;;;18.55;12.65;;;10.90;75.60;;;;;;5072614;28;20127;-86
2021/04/17 10:48:17;;;;;;;19.00;13.73;;;11.00;75.70;;;;;;5073860;28;20025;-86
2021/04/17 10:51:03;;;;;;;18.65;14.05;;;11.00;75.60;;;;;;5073686;28;20036;-85
2021/04/17 10:53:37;;;;;;;16.80;12.10;;;11.10;75.20;;;;;;5073288;28;20039;-85
2021/04/17 10:56:12;;;;;;;16.08;11.35;;;11.10;75.10;;;;;;5073745;28;20029;-86
2021/04/17 10:58:38;;;;;;;;;;;11.10;75.10;;;;;;5074019;28;20032;-85
2021/04/17 11:01:09;;;;;;;15.10;10.40;;;11.20;75.60;;;;;;5075022;28;19926;-84
2021/04/17 11:03:49;;;;;;;13.30;10.13;;;11.10;74.80;;;;;;5074100;28;20877;-84
2021/04/17 11:06:23;;;;;;;13.90;10.75;;;11.10;74.60;;;;;;5073212;28;20029;-84
2021/04/17 11:08:51;;;;;;;14.10;10.40;;;11.10;74.70;;;;;;5072359;28;20039;-85
2021/04/17 11:11:20;;;;;;;13.00;9.70;;;11.20;74.60;;;;;;5073452;28;20119;-85
2021/04/17 11:13:46;;;;;;;13.52;10.43;;;11.20;74.10;;;;;;5073366;28;20040;-86
2021/04/17 11:16:13;;;;;;;13.30;10.10;;;11.20;74.00;;;;;;5072608;28;20482;-85
2021/04/17 11:18:43;;;;;;;13.02;10.23;;;11.30;73.80;;;;;;5072046;28;20044;-84
2021/04/17 11:21:12;;;;;;;13.68;9.95;;;11.40;73.90;;;;;;5072485;28;20039;-84
2021/04/17 11:23:45;;;;;;;13.35;10.30;;;11.60;73.60;;;;;;5082985;28;20054;-81
2021/04/17 11:26:25;;;;;;;12.98;9.93;;;11.90;73.40;;;;;;5082455;28;20029;-82
2021/04/17 11:28:59;;;;;;;15.43;10.32;;;12.20;72.80;;;;;;5070402;28;20021;-81
2021/04/17 11:31:30;;;;;;;11.63;9.40;;;12.60;72.70;;;;;;5071722;28;20523;-81
2021/04/17 11:33:59;;;;;;;12.23;9.60;;;12.90;71.70;;;;;;5072211;28;20036;-80
2021/04/17 11:36:27;;;;;;;11.52;9.43;;;13.20;70.80;;;;;;5069750;28;20012;-81
2021/04/17 11:38:54;;;;;;;13.15;9.95;;;13.40;69.70;;;;;;5071902;28;20052;-81
2021/04/17 11:41:21;;;;;;;11.02;8.73;;;13.60;69.20;;;;;;5072312;28;20033;-81
2021/04/17 11:43:47;;;;;;;11.00;9.13;;;13.70;67.70;;;;;;5073963;28;20021;-80
2021/04/17 11:46:14;;;;;;;13.13;10.00;;;13.80;67.30;;;;;;5074084;28;20032;-82
2021/04/17 11:48:41;;;;;;;12.57;9.18;;;13.90;66.70;;;;;;5071807;28;20428;-82
2021/04/17 11:51:08;;;;;;;11.52;8.85;;;13.90;66.10;;;;;;5070479;28;20048;-82
2021/04/17 11:53:35;;;;;;;9.73;8.20;;;14.00;65.90;;;;;;5071685;28;20431;-82
2021/04/17 11:56:02;;;;;;;11.40;9.65;;;13.90;65.50;;;;;;5071332;28;20392;-82
2021/04/17 11:58:27;;;;;;;14.65;10.00;;;13.90;64.80;;;;;;5072012;28;20532;-81
2021/04/17 12:00:54;;;;;;;10.68;8.18;;;13.90;64.90;;;;;;5072117;28;20036;-82
2021/04/17 12:03:23;;;;;;;14.50;8.10;;;13.90;64.20;;;;;;5071601;28;20025;-83
2021/04/17 12:05:52;;;;;;;12.35;8.88;;;13.80;63.80;;;;;;5073968;28;20078;-83
2021/04/17 12:08:19;;;;;;;10.88;9.02;;;13.80;63.90;;;;;;5075998;28;20025;-82
2021/04/17 12:10:45;;;;;;;8.75;7.85;;;13.80;64.00;;;;;;5075164;28;20025;-83
2021/04/17 12:13:11;;;;;;;8.93;8.02;;;13.70;63.10;;;;;;5074444;28;20478;-83
2021/04/17 12:15:38;;;;;;;10.10;9.07;;;13.50;62.90;;;;;;5075488;28;20021;-84
2021/04/17 12:18:04;;;;;;;10.07;8.88;;;13.30;62.70;;;;;;5075736;28;20028;-84
2021/04/17 12:20:30;;;;;;;10.50;8.75;;;13.10;62.70;;;;;;5075765;28;20040;-84
2021/04/17 12:22:56;;;;;;;10.35;9.25;;;12.90;63.10;;;;;;5075412;28;20074;-84
2021/04/17 12:25:22;;;;;;;9.60;8.52;;;12.70;63.40;;;;;;5075473;28;20120;-84
2021/04/17 12:27:49;;;;;;;11.25;10.07;;;12.50;63.60;;;;;;5076030;28;20031;-83
2021/04/17 12:30:16;;;;;;;16.23;13.55;;;12.40;63.90;;;;;;5075714;28;20227;-84
2021/04/17 12:32:42;;;;;;;9.27;8.38;;;12.30;64.10;;;;;;5075899;28;20129;-85
2021/04/17 12:35:10;;;;;;;12.98;10.63;;;12.30;64.50;;;;;;5074797;28;20029;-82
2021/04/17 12:37:36;;;;;;;10.50;9.13;;;12.30;64.50;;;;;;5074924;28;20060;-84
2021/04/17 12:40:02;;;;;;;14.65;12.02;;;12.30;64.90;;;;;;5074477;28;20051;-84
2021/04/17 12:42:28;;;;;;;12.38;10.32;;;12.40;64.90;;;;;;5074647;28;20083;-84
2021/04/17 12:44:53;;;;;;;13.20;10.90;;;12.50;65.00;;;;;;5075100;28;20033;-83
2021/04/17 12:47:19;;;;;;;8.98;7.95;;;12.60;64.80;;;;;;5074682;28;20065;-83
2021/04/17 12:49:45;;;;;;;9.30;8.40;;;12.70;64.30;;;;;;5075076;28;20474;-84
2021/04/17 12:52:11;;;;;;;11.32;8.32;;;12.80;64.00;;;;;;5075196;28;20020;-85
2021/04/17 12:54:37;;;;;;;9.85;8.00;;;12.90;64.10;;;;;;5074290;28;20435;-85